Coral Gbls, Florida
Current Conditions -  °F | °C
As of 2:53 AM on Friday 24 Oct 2014 (Local Time) from KTMB Reporting Station
Overcast Overcast  
Wind Chill: 78°   Ceiling: 3000
Heat Index: 80°   Visibility: 10mi
Dew Point: 70°   Wind: 9mph
Humidity: 76%   Direction: 40°NE
Pressure: 29.84"   Gusts: NA
Location:  25.6371°N, 80.3102°W
Report Text: KTMB 240653Z AUTO 04008KT 10SM BKN030 OVC050 26/21 A2984 RMK AO2 SLP105 T02560211
Loading
Personal Weather Stations






























Interactive Weather Map
Tropical Storm Tracking
New forecast layout! Learn more

10-Day Weather Forecast

Advertisements
Track Severe Weather on mobile